Details From LELN - Leon
To LEST - Santiago
Flight Number -
Tags generated
Created
Modified
Stats Distance 123 nm / 229 km
Max Altitude 10,500 ft / 3,200 m
Waypoints 3
Social Downloads 0
Likes 0
Share VATSIM

Download

Looking for another format? Having issues loading an existing format? Contact us
Advertisement - Login to hide

Notes

Basic altitude profile: - Ascent Rate: 2500ft/min - Ascent Speed: 250kts - Cruise Altitude: 35000ft - Cruise Speed: 420kts - Descent Rate: 1500ft/min - Descent Speed: 250kts Options: - Use NATs: yes - Use PACOTS: yes - Use low airways: yes - Use high airways: yes

Route

LELN LOMDA LEST

ID Type Via Altitude Latitude Longitude Leg Dist Tot Dist Heading (true) Name
O LELN APT - 0 ft / 0 m 42.59194˚ -5.65419˚ - 0 nm - Leon
LOMDA FIX - 10,500 ft / 3,200 m 42.85280˚ -7.29602˚ 74 nm 74 nm 283° / 282° -
O LEST APT - 0 ft / 0 m 42.89780˚ -8.41569˚ 49 nm 123 nm 274° / 273° Santiago

Altitude Profile

Advertisement - Login to hide

LELN

Details ICAO LELN (LEN)
Name Leon
Region Spain
Timezone Europe/Madrid (UTC+2.0)
Stats Elevation 3,006 ft / 916 m (AMSL)
Location 42.591935° -5.654188°
Runways 2
Magnetic Variation 1.381° W

METAR

LELN 201000Z 09001KT 9999 FEW035 17/03 Q1016

Decode

TAF

Not found

Departure Runways

ID Width Length Bearing (true) Bearing (mag) Surface Threshold Offset Overrun Length
05 148 ft / 45 m 9,836 ft / 2,998 m 45.23° 46.61° Asphalt 0 ft / 0 m 210 ft / 64 m
06 328 ft / 100 m 3,602 ft / 1,098 m 59.75° 61.13° Dirt 0 ft / 0 m 0 ft / 0 m
23 148 ft / 45 m 9,836 ft / 2,998 m 225.25° 226.63° Asphalt 0 ft / 0 m 190 ft / 58 m
24 328 ft / 100 m 3,602 ft / 1,098 m 239.75° 241.13° Dirt 0 ft / 0 m 0 ft / 0 m

LEST

Details ICAO LEST (SCQ)
Name Santiago
Region Spain
Timezone Europe/Madrid (UTC+2.0)
Stats Elevation 1,169 ft / 356 m (AMSL)
Location 42.897797° -8.415691°
Runways 1
Magnetic Variation 2.314° W

METAR

LEST 201000Z 09006KT 010V180 CAVOK 19/11 Q1015 NOSIG

Decode

TAF

TAF LEST 200500Z 2006/2106 05009KT CAVOK TX24/2014Z TN09/2006Z PROB40 TEMPO 2012/2018 SCT030TCU

Decode

Destination Runways

ID Width Length Bearing (true) Bearing (mag) Surface Threshold Offset Overrun Length
17 148 ft / 45 m 10,509 ft / 3,203 m 166.04° 168.35° Asphalt 394 ft / 120 m 0 ft / 0 m
35 148 ft / 45 m 10,509 ft / 3,203 m 346.05° 348.36° Asphalt 0 ft / 0 m 197 ft / 60 m

Approach Navaids

Runway Type Ident Frequency Range Bearing (true) Bearing (mag) Slope Elevation
17 Localiser IGO 110.30 MHz 18 nm / 33 km 166.06° 168.37° - 1,171 ft / 357 m (AMSL)
17 Glidescope IGO 110.30 MHz 10 nm / 19 km 166.04° 168.36° 3.00° 1,171 ft / 357 m (AMSL)
17 DME IGO 110.30 MHz 18 nm / 33 km - - - 1,171 ft / 357 m (AMSL)
35 Localiser ISO 111.50 MHz 18 nm / 33 km 346.20° 348.51° - 1,197 ft / 365 m (AMSL)
35 Glidescope ISO 111.50 MHz 10 nm / 19 km 346.05° 348.36° 3.00° 1,196 ft / 365 m (AMSL)
35 DME ISO 111.50 MHz 18 nm / 33 km - - - 1,196 ft / 365 m (AMSL)